San Jose Airport (Guatemala)

Airport
ICAO code: 
MGSJ
IATA Code: 
GSJ
Summary
ICAO Region: 
CARSAM
Territory: 
Location: 
Puerto San Jose, Escuintla Department
Serving: 
Puerto San Jose
Elevation: 
29 ft
Coordinates: 
Aerial View: 
13° 56' 7.001" N, 90° 50' 10.007" W
Metar
Observation
MGSJ 251700Z 15008KT 8000 SKC 31/24 Q1015 A2997 FU
Station
San Jose
Date/Time
2022-01-25 17:00:00
Wind direction
150°
Wind speed
08 kts
Lowest cloud amount
n/a
Temperature
31°C
Dew point
24°C
Humidity
66%
QNH
1015 hPa
Weather condition
n/a

San José Airport (Aeropuerto de Puerto San José, Escuintla) serves the city of Puerto San José, the recreative town of Monterrico, the port of Puerto Quetzal and the eastern Guatemalan Pacific coast.

Climatology

Tropical savannah climate (Köppen climate classification Aw)

Runways

Designator Length Width Surface Rops
15/33 2010 46 ASP No/No
Airport map: 
Aerial View: 

SKYbrary Partners:

Safety knowledge contributed by: